Etusivu
METAR-TAF:

METAR-TAF

Lentoasemat :

Sunanin kansainvälinen lentoasema

Pjongjang, Pohjois-Korea

Leveyspiiri: 39-02N, Pituuspiiri: 125-47E, korkeus merenpinnasta: 36 m

METAR: puuttuu

Aika: 02:47 (17:47 UTC)

Sääennuste

Tämä raportti tehtiin 13 tuntia ja 47 minuuttia sitten, kello 04.00 UTC
Ennuste voimassa 26. päivästä klo 06 UTC - 27. päivään klo 06 UTC
Tuuli 8 kn etelästä
Näkyvyys: 6000 m
Pilvistä 2300 ft:n korkeudessa
heikkoa sadetta
Tulossa
26. päivästä klo 12 UTC - 26. päivään klo 14 UTC
Tuuli 8 kn lännestä/luoteesta
Hajonneita pilviä 3000 ft:n korkeudessa

TAF: ZKPY 260400Z 2606/2706 19004MPS 6000 -RA OVC023 TX19/2606Z TN13/2621Z BECMG 2612/2614 29004MPS BKN030

Säähavainnot ja -ennusteet yli 4000 lentoasemalta (METAR- ja TAF-raportit).

Käytössä olevat sääasemat on merkitty karttaan keltaisilla ja punaisilla pisteillä.

Aseta hiiri pisteen päälle nähdäksesi sääaseman nimen.

Klikkaa sitten nähdäksesi säähavainnot ja -ennusteet.

Kartan vaihtaminen: klikkaa mustalla rastilla varustettuja vihreitä pisteitä, niin voit zoomata sisään; viivalla varustettua vihreää pistettä, niin voit zoomata ulos tai vihreitä nuolia, niin pääset viereisille kartoille.


METAR-TAF: